Jinan — 5IM_757 — position and weather

sailwx.info

Track history (hours):
 
Tides and Currents Weather Stations Pressure Air Temp Water Temp Dewpoint Dewpoint Depression Visibility Wind Speed Wind Dir Waves Ship Positions

Jinan

Last reported at 2017-Dec-15 00:57 UTC. Time now 2017-Dec-18 05:17 UTC.
Position N 40°54' E 028°48'.

Length 97 m; draft 6.9 m.

Type: Cargo ship. MMSI: 677095700.

Date/timePositionNaut miles runAvg speedWind from/ knotsBaromVisibWave heightAir tempDewpointWater temp
2017-Dec-15 00:57N 40°54' E 028°48'6 9.1
2017-Dec-15 00:20N 40°57' E 028°55'135 5.3
2017-Dec-13 22:55N 43°09' E 029°29'511.2
2017-Dec-13 22:30N 43°14' E 029°30'611.2
2017-Dec-13 21:59N 43°20' E 029°31'511.1
2017-Dec-13 21:29N 43°25' E 029°33'511.1
2017-Dec-13 21:00N 43°31' E 029°34'611.3
2017-Dec-13 20:30N 43°36' E 029°35'611.5
2017-Dec-13 20:00N 43°42' E 029°35'611.4
2017-Dec-13 19:30N 43°48' E 029°36'611.4
2017-Dec-13 19:00N 43°53' E 029°38'611.3
2017-Dec-13 18:30N 43°59' E 029°39'1710.4
2017-Dec-13 16:50N 44°16' E 029°41'310.8
2017-Dec-13 16:30N 44°19' E 029°42'510.8
2017-Dec-13 16:00N 44°25' E 029°44'510.7
2017-Dec-13 15:30N 44°30' E 029°44'510.8
2017-Dec-13 15:00N 44°35' E 029°46'  
Track history (hours):
 
Tides and Currents Weather Stations Pressure Air Temp Water Temp Dewpoint Dewpoint Depression Visibility Wind Speed Wind Dir Waves Ship Positions

Jinan

Last reported at 2017-Dec-15 00:57 UTC. Time now 2017-Dec-18 05:17 UTC.
Position N 40°54' E 028°48'.

Length 97 m; draft 6.9 m.

Type: Cargo ship. MMSI: 677095700.

Date/timePositionNaut miles runAvg speedWind from/ knotsBaromVisibWave heightAir tempDewpointWater temp
2017-Dec-15 00:57N 40°54' E 028°48'6 9.1
2017-Dec-15 00:20N 40°57' E 028°55'135 5.3
2017-Dec-13 22:55N 43°09' E 029°29'511.2
2017-Dec-13 22:30N 43°14' E 029°30'611.2
2017-Dec-13 21:59N 43°20' E 029°31'511.1
2017-Dec-13 21:29N 43°25' E 029°33'511.1
2017-Dec-13 21:00N 43°31' E 029°34'611.3
2017-Dec-13 20:30N 43°36' E 029°35'611.5
2017-Dec-13 20:00N 43°42' E 029°35'611.4
2017-Dec-13 19:30N 43°48' E 029°36'611.4
2017-Dec-13 19:00N 43°53' E 029°38'611.3
2017-Dec-13 18:30N 43°59' E 029°39'1710.4
2017-Dec-13 16:50N 44°16' E 029°41'310.8
2017-Dec-13 16:30N 44°19' E 029°42'510.8
2017-Dec-13 16:00N 44°25' E 029°44'510.7
2017-Dec-13 15:30N 44°30' E 029°44'510.8
2017-Dec-13 15:00N 44°35' E 029°46'  

Dump ship's entire track history